sensor_id;sensor_type;location;lat;lon;timestamp;P1;durP1;ratioP1;P2;durP2;ratioP2
7747;SDS011;3918;42.564;23.164;2023-04-01T00:01:26;11.43;;;1.50;;
7747;SDS011;3918;42.564;23.164;2023-04-01T00:03:53;5.97;;;2.15;;
7747;SDS011;3918;42.564;23.164;2023-04-01T00:06:21;9.55;;;1.88;;
7747;SDS011;3918;42.564;23.164;2023-04-01T00:08:48;10.07;;;1.75;;
7747;SDS011;3918;42.564;23.164;2023-04-01T00:11:15;5.68;;;1.55;;
7747;SDS011;3918;42.564;23.164;2023-04-01T00:13:42;5.60;;;1.77;;
7747;SDS011;3918;42.564;23.164;2023-04-01T00:16:11;12.55;;;1.92;;
7747;SDS011;3918;42.564;23.164;2023-04-01T00:18:39;6.35;;;1.95;;
7747;SDS011;3918;42.564;23.164;2023-04-01T00:21:06;7.18;;;1.77;;
7747;SDS011;3918;42.564;23.164;2023-04-01T00:23:33;4.30;;;1.70;;
7747;SDS011;3918;42.564;23.164;2023-04-01T00:26:00;14.15;;;2.03;;
7747;SDS011;3918;42.564;23.164;2023-04-01T00:28:28;4.28;;;1.45;;
7747;SDS011;3918;42.564;23.164;2023-04-01T00:30:55;4.90;;;2.08;;
7747;SDS011;3918;42.564;23.164;2023-04-01T00:33:23;8.10;;;1.83;;
7747;SDS011;3918;42.564;23.164;2023-04-01T00:35:50;9.43;;;1.98;;
7747;SDS011;3918;42.564;23.164;2023-04-01T00:38:17;3.53;;;1.77;;
7747;SDS011;3918;42.564;23.164;2023-04-01T00:40:46;3.50;;;1.60;;
7747;SDS011;3918;42.564;23.164;2023-04-01T00:43:15;4.18;;;1.60;;
7747;SDS011;3918;42.564;23.164;2023-04-01T00:45:44;8.98;;;1.77;;
7747;SDS011;3918;42.564;23.164;2023-04-01T00:48:13;3.45;;;1.40;;
7747;SDS011;3918;42.564;23.164;2023-04-01T00:50:45;4.60;;;1.38;;
7747;SDS011;3918;42.564;23.164;2023-04-01T00:53:15;3.40;;;1.50;;
7747;SDS011;3918;42.564;23.164;2023-04-01T00:55:45;3.20;;;1.38;;
7747;SDS011;3918;42.564;23.164;2023-04-01T00:58:17;3.80;;;1.63;;
7747;SDS011;3918;42.564;23.164;2023-04-01T01:00:49;4.57;;;1.80;;
7747;SDS011;3918;42.564;23.164;2023-04-01T01:03:17;5.78;;;1.80;;
7747;SDS011;3918;42.564;23.164;2023-04-01T01:05:50;2.15;;;1.50;;
7747;SDS011;3918;42.564;23.164;2023-04-01T01:08:39;4.97;;;1.30;;
7747;SDS011;3918;42.564;23.164;2023-04-01T01:11:20;3.60;;;1.75;;
7747;SDS011;3918;42.564;23.164;2023-04-01T01:13:53;5.82;;;2.50;;
7747;SDS011;3918;42.564;23.164;2023-04-01T01:16:28;1.70;;;1.35;;
7747;SDS011;3918;42.564;23.164;2023-04-01T01:19:02;1.05;;;1.00;;
7747;SDS011;3918;42.564;23.164;2023-04-01T01:24:42;3.85;;;1.45;;
7747;SDS011;3918;42.564;23.164;2023-04-01T01:27:17;1.92;;;1.20;;
7747;SDS011;3918;42.564;23.164;2023-04-01T01:32:44;6.43;;;1.40;;
7747;SDS011;3918;42.564;23.164;2023-04-01T01:35:27;6.63;;;1.65;;
7747;SDS011;3918;42.564;23.164;2023-04-01T01:37:58;4.38;;;1.15;;
7747;SDS011;3918;42.564;23.164;2023-04-01T01:40:28;4.93;;;1.45;;
7747;SDS011;3918;42.564;23.164;2023-04-01T01:42:58;2.90;;;2.60;;
7747;SDS011;3918;42.564;23.164;2023-04-01T01:45:29;10.10;;;1.52;;
7747;SDS011;3918;42.564;23.164;2023-04-01T01:48:00;5.75;;;1.55;;
7747;SDS011;3918;42.564;23.164;2023-04-01T01:50:30;5.15;;;1.63;;
7747;SDS011;3918;42.564;23.164;2023-04-01T01:53:02;7.60;;;1.63;;
7747;SDS011;3918;42.564;23.164;2023-04-01T01:55:30;3.72;;;1.67;;
7747;SDS011;3918;42.564;23.164;2023-04-01T01:58:00;6.25;;;1.77;;
7747;SDS011;3918;42.564;23.164;2023-04-01T02:00:37;8.82;;;1.65;;
7747;SDS011;3918;42.564;23.164;2023-04-01T02:03:05;2.72;;;1.65;;
7747;SDS011;3918;42.564;23.164;2023-04-01T02:05:34;2.75;;;2.10;;
7747;SDS011;3918;42.564;23.164;2023-04-01T02:08:03;7.05;;;1.42;;
7747;SDS011;3918;42.564;23.164;2023-04-01T02:10:35;2.33;;;1.27;;
7747;SDS011;3918;42.564;23.164;2023-04-01T02:13:07;3.47;;;1.63;;
7747;SDS011;3918;42.564;23.164;2023-04-01T02:15:40;6.93;;;1.85;;
7747;SDS011;3918;42.564;23.164;2023-04-01T02:18:12;6.72;;;1.73;;
7747;SDS011;3918;42.564;23.164;2023-04-01T02:20:42;5.28;;;1.40;;
7747;SDS011;3918;42.564;23.164;2023-04-01T02:23:10;10.60;;;1.40;;
7747;SDS011;3918;42.564;23.164;2023-04-01T02:25:37;2.20;;;1.23;;
7747;SDS011;3918;42.564;23.164;2023-04-01T02:28:07;4.32;;;1.70;;
7747;SDS011;3918;42.564;23.164;2023-04-01T02:30:36;2.60;;;1.17;;
7747;SDS011;3918;42.564;23.164;2023-04-01T02:33:06;2.22;;;1.40;;
7747;SDS011;3918;42.564;23.164;2023-04-01T02:35:34;9.02;;;1.50;;
7747;SDS011;3918;42.564;23.164;2023-04-01T02:38:03;5.57;;;1.55;;
7747;SDS011;3918;42.564;23.164;2023-04-01T02:40:40;3.83;;;1.90;;
7747;SDS011;3918;42.564;23.164;2023-04-01T02:43:08;3.60;;;1.55;;
7747;SDS011;3918;42.564;23.164;2023-04-01T02:45:35;6.20;;;1.67;;
7747;SDS011;3918;42.564;23.164;2023-04-01T02:48:02;3.33;;;1.48;;
7747;SDS011;3918;42.564;23.164;2023-04-01T02:50:29;1.90;;;1.23;;
7747;SDS011;3918;42.564;23.164;2023-04-01T02:52:56;4.55;;;1.80;;
7747;SDS011;3918;42.564;23.164;2023-04-01T02:55:24;3.65;;;1.50;;
7747;SDS011;3918;42.564;23.164;2023-04-01T02:57:51;4.63;;;1.60;;
7747;SDS011;3918;42.564;23.164;2023-04-01T03:00:18;2.53;;;1.50;;
7747;SDS011;3918;42.564;23.164;2023-04-01T03:02:45;7.05;;;1.60;;
7747;SDS011;3918;42.564;23.164;2023-04-01T03:05:12;5.22;;;1.65;;
7747;SDS011;3918;42.564;23.164;2023-04-01T03:07:39;2.75;;;1.50;;
7747;SDS011;3918;42.564;23.164;2023-04-01T03:10:06;2.67;;;1.50;;
7747;SDS011;3918;42.564;23.164;2023-04-01T03:12:35;2.92;;;1.40;;
7747;SDS011;3918;42.564;23.164;2023-04-01T03:15:01;5.90;;;1.83;;
7747;SDS011;3918;42.564;23.164;2023-04-01T03:17:29;2.35;;;1.40;;
7747;SDS011;3918;42.564;23.164;2023-04-01T03:19:56;2.70;;;1.52;;
7747;SDS011;3918;42.564;23.164;2023-04-01T03:22:22;4.07;;;2.10;;
7747;SDS011;3918;42.564;23.164;2023-04-01T03:24:49;5.93;;;1.70;;
7747;SDS011;3918;42.564;23.164;2023-04-01T03:27:16;3.00;;;1.58;;
7747;SDS011;3918;42.564;23.164;2023-04-01T03:29:44;3.50;;;1.38;;
7747;SDS011;3918;42.564;23.164;2023-04-01T03:32:11;4.63;;;1.52;;
7747;SDS011;3918;42.564;23.164;2023-04-01T03:34:37;5.53;;;1.65;;
7747;SDS011;3918;42.564;23.164;2023-04-01T03:37:04;7.10;;;1.77;;
7747;SDS011;3918;42.564;23.164;2023-04-01T03:39:31;5.53;;;1.60;;
7747;SDS011;3918;42.564;23.164;2023-04-01T03:41:58;6.60;;;1.55;;
7747;SDS011;3918;42.564;23.164;2023-04-01T03:44:25;3.78;;;1.35;;
7747;SDS011;3918;42.564;23.164;2023-04-01T03:46:54;6.32;;;1.55;;
7747;SDS011;3918;42.564;23.164;2023-04-01T03:49:20;2.67;;;1.10;;
7747;SDS011;3918;42.564;23.164;2023-04-01T03:51:47;7.13;;;1.55;;
7747;SDS011;3918;42.564;23.164;2023-04-01T03:54:14;1.50;;;0.80;;
7747;SDS011;3918;42.564;23.164;2023-04-01T03:56:42;2.90;;;1.15;;
7747;SDS011;3918;42.564;23.164;2023-04-01T03:59:08;7.75;;;1.23;;
7747;SDS011;3918;42.564;23.164;2023-04-01T04:01:35;3.20;;;1.38;;
7747;SDS011;3918;42.564;23.164;2023-04-01T04:04:03;6.28;;;1.50;;
7747;SDS011;3918;42.564;23.164;2023-04-01T04:06:30;5.47;;;1.45;;
7747;SDS011;3918;42.564;23.164;2023-04-01T04:08:59;5.22;;;1.73;;
7747;SDS011;3918;42.564;23.164;2023-04-01T04:11:25;4.47;;;1.77;;
7747;SDS011;3918;42.564;23.164;2023-04-01T04:13:52;5.57;;;1.48;;
7747;SDS011;3918;42.564;23.164;2023-04-01T04:16:19;2.50;;;1.25;;
7747;SDS011;3918;42.564;23.164;2023-04-01T04:18:46;1.80;;;1.20;;
7747;SDS011;3918;42.564;23.164;2023-04-01T04:21:14;6.95;;;1.58;;
7747;SDS011;3918;42.564;23.164;2023-04-01T04:23:41;4.18;;;1.40;;
7747;SDS011;3918;42.564;23.164;2023-04-01T04:26:09;2.83;;;1.67;;
7747;SDS011;3918;42.564;23.164;2023-04-01T04:28:37;8.23;;;1.52;;
7747;SDS011;3918;42.564;23.164;2023-04-01T04:31:04;10.23;;;1.70;;
7747;SDS011;3918;42.564;23.164;2023-04-01T04:33:32;1.92;;;1.17;;
7747;SDS011;3918;42.564;23.164;2023-04-01T04:36:00;4.35;;;1.48;;
7747;SDS011;3918;42.564;23.164;2023-04-01T04:38:28;4.13;;;1.33;;
7747;SDS011;3918;42.564;23.164;2023-04-01T04:40:55;7.63;;;1.70;;
7747;SDS011;3918;42.564;23.164;2023-04-01T04:43:22;5.00;;;1.40;;
7747;SDS011;3918;42.564;23.164;2023-04-01T04:45:48;3.80;;;1.25;;
7747;SDS011;3918;42.564;23.164;2023-04-01T04:48:15;4.50;;;1.58;;
7747;SDS011;3918;42.564;23.164;2023-04-01T04:50:43;3.97;;;1.50;;
7747;SDS011;3918;42.564;23.164;2023-04-01T04:53:10;3.58;;;1.58;;
7747;SDS011;3918;42.564;23.164;2023-04-01T04:55:42;3.65;;;1.65;;
7747;SDS011;3918;42.564;23.164;2023-04-01T04:58:09;1.48;;;1.15;;
7747;SDS011;3918;42.564;23.164;2023-04-01T05:00:36;2.08;;;1.23;;
7747;SDS011;3918;42.564;23.164;2023-04-01T05:03:02;3.03;;;1.58;;
7747;SDS011;3918;42.564;23.164;2023-04-01T05:05:29;4.75;;;1.88;;
7747;SDS011;3918;42.564;23.164;2023-04-01T05:07:56;3.33;;;1.10;;
7747;SDS011;3918;42.564;23.164;2023-04-01T05:10:23;4.95;;;1.40;;
7747;SDS011;3918;42.564;23.164;2023-04-01T05:12:51;4.65;;;1.35;;
7747;SDS011;3918;42.564;23.164;2023-04-01T05:15:18;5.93;;;1.38;;
7747;SDS011;3918;42.564;23.164;2023-04-01T05:17:45;5.07;;;1.90;;
7747;SDS011;3918;42.564;23.164;2023-04-01T05:20:12;4.88;;;1.90;;
7747;SDS011;3918;42.564;23.164;2023-04-01T05:22:40;2.83;;;1.50;;
7747;SDS011;3918;42.564;23.164;2023-04-01T05:25:07;6.88;;;2.83;;
7747;SDS011;3918;42.564;23.164;2023-04-01T05:27:34;4.72;;;1.90;;
7747;SDS011;3918;42.564;23.164;2023-04-01T05:30:02;5.28;;;1.40;;
7747;SDS011;3918;42.564;23.164;2023-04-01T05:32:30;7.00;;;1.30;;
7747;SDS011;3918;42.564;23.164;2023-04-01T05:34:57;4.07;;;1.30;;
7747;SDS011;3918;42.564;23.164;2023-04-01T05:37:24;6.40;;;1.60;;
7747;SDS011;3918;42.564;23.164;2023-04-01T05:39:50;3.25;;;1.50;;
7747;SDS011;3918;42.564;23.164;2023-04-01T05:42:17;3.53;;;1.80;;
7747;SDS011;3918;42.564;23.164;2023-04-01T05:44:44;4.72;;;1.92;;
7747;SDS011;3918;42.564;23.164;2023-04-01T05:47:12;4.65;;;1.40;;
7747;SDS011;3918;42.564;23.164;2023-04-01T05:49:39;1.92;;;1.42;;
7747;SDS011;3918;42.564;23.164;2023-04-01T05:52:05;2.55;;;1.40;;
7747;SDS011;3918;42.564;23.164;2023-04-01T05:54:32;3.67;;;1.27;;
7747;SDS011;3918;42.564;23.164;2023-04-01T05:56:59;6.18;;;1.60;;
7747;SDS011;3918;42.564;23.164;2023-04-01T05:59:26;5.07;;;1.80;;
7747;SDS011;3918;42.564;23.164;2023-04-01T06:01:53;8.18;;;2.00;;
7747;SDS011;3918;42.564;23.164;2023-04-01T06:04:21;2.90;;;1.38;;
7747;SDS011;3918;42.564;23.164;2023-04-01T06:06:48;3.17;;;1.73;;
7747;SDS011;3918;42.564;23.164;2023-04-01T06:09:15;2.78;;;1.40;;
7747;SDS011;3918;42.564;23.164;2023-04-01T06:11:48;5.05;;;1.67;;
7747;SDS011;3918;42.564;23.164;2023-04-01T06:14:27;4.47;;;1.45;;
7747;SDS011;3918;42.564;23.164;2023-04-01T06:17:12;3.38;;;2.10;;
7747;SDS011;3918;42.564;23.164;2023-04-01T06:19:50;3.30;;;1.85;;
7747;SDS011;3918;42.564;23.164;2023-04-01T06:22:27;5.68;;;1.45;;
7747;SDS011;3918;42.564;23.164;2023-04-01T06:31:20;5.82;;;1.95;;
7747;SDS011;3918;42.564;23.164;2023-04-01T06:34:05;4.47;;;1.73;;
7747;SDS011;3918;42.564;23.164;2023-04-01T06:36:47;9.30;;;1.98;;
7747;SDS011;3918;42.564;23.164;2023-04-01T06:39:33;3.78;;;1.70;;
7747;SDS011;3918;42.564;23.164;2023-04-01T06:42:18;3.97;;;1.50;;
7747;SDS011;3918;42.564;23.164;2023-04-01T06:45:00;10.93;;;1.60;;
7747;SDS011;3918;42.564;23.164;2023-04-01T06:47:38;6.32;;;1.60;;
7747;SDS011;3918;42.564;23.164;2023-04-01T06:50:17;5.90;;;1.25;;
7747;SDS011;3918;42.564;23.164;2023-04-01T06:52:52;5.75;;;1.42;;
7747;SDS011;3918;42.564;23.164;2023-04-01T06:55:26;1.52;;;1.15;;
7747;SDS011;3918;42.564;23.164;2023-04-01T06:57:58;1.70;;;1.23;;
7747;SDS011;3918;42.564;23.164;2023-04-01T07:00:30;2.00;;;1.48;;
7747;SDS011;3918;42.564;23.164;2023-04-01T07:03:03;8.18;;;1.88;;
7747;SDS011;3918;42.564;23.164;2023-04-01T07:05:36;5.55;;;1.67;;
7747;SDS011;3918;42.564;23.164;2023-04-01T07:08:05;7.07;;;1.40;;
7747;SDS011;3918;42.564;23.164;2023-04-01T07:10:39;7.22;;;1.45;;
7747;SDS011;3918;42.564;23.164;2023-04-01T07:13:13;4.43;;;1.33;;
7747;SDS011;3918;42.564;23.164;2023-04-01T07:15:49;4.22;;;1.30;;
7747;SDS011;3918;42.564;23.164;2023-04-01T07:18:24;3.38;;;1.88;;
7747;SDS011;3918;42.564;23.164;2023-04-01T07:20:59;2.35;;;1.30;;
7747;SDS011;3918;42.564;23.164;2023-04-01T07:23:28;3.28;;;1.42;;
7747;SDS011;3918;42.564;23.164;2023-04-01T07:26:04;1.92;;;1.45;;
7747;SDS011;3918;42.564;23.164;2023-04-01T07:28:40;3.67;;;1.70;;
7747;SDS011;3918;42.564;23.164;2023-04-01T07:31:11;7.22;;;1.52;;
7747;SDS011;3918;42.564;23.164;2023-04-01T07:33:49;7.32;;;1.67;;
7747;SDS011;3918;42.564;23.164;2023-04-01T07:36:22;6.47;;;1.98;;
7747;SDS011;3918;42.564;23.164;2023-04-01T07:39:01;4.57;;;1.70;;
7747;SDS011;3918;42.564;23.164;2023-04-01T07:41:40;7.10;;;1.77;;
7747;SDS011;3918;42.564;23.164;2023-04-01T07:44:18;5.67;;;1.97;;
7747;SDS011;3918;42.564;23.164;2023-04-01T07:47:05;4.35;;;1.70;;
7747;SDS011;3918;42.564;23.164;2023-04-01T07:49:42;18.60;;;1.85;;
7747;SDS011;3918;42.564;23.164;2023-04-01T07:52:22;6.47;;;1.80;;
7747;SDS011;3918;42.564;23.164;2023-04-01T07:54:57;4.68;;;1.60;;
7747;SDS011;3918;42.564;23.164;2023-04-01T07:57:33;18.17;;;2.17;;
7747;SDS011;3918;42.564;23.164;2023-04-01T08:00:07;3.67;;;1.85;;
7747;SDS011;3918;42.564;23.164;2023-04-01T08:02:43;9.07;;;1.55;;
7747;SDS011;3918;42.564;23.164;2023-04-01T08:05:25;4.63;;;1.27;;
7747;SDS011;3918;42.564;23.164;2023-04-01T08:07:57;8.70;;;1.88;;
7747;SDS011;3918;42.564;23.164;2023-04-01T08:10:34;11.63;;;2.28;;
7747;SDS011;3918;42.564;23.164;2023-04-01T08:13:07;4.80;;;1.55;;
7747;SDS011;3918;42.564;23.164;2023-04-01T08:15:44;4.00;;;1.40;;
7747;SDS011;3918;42.564;23.164;2023-04-01T08:18:22;8.68;;;2.20;;
7747;SDS011;3918;42.564;23.164;2023-04-01T08:20:58;5.82;;;1.83;;
7747;SDS011;3918;42.564;23.164;2023-04-01T08:23:28;3.08;;;1.50;;
7747;SDS011;3918;42.564;23.164;2023-04-01T08:26:01;5.97;;;2.00;;
7747;SDS011;3918;42.564;23.164;2023-04-01T08:28:32;7.85;;;1.73;;
7747;SDS011;3918;42.564;23.164;2023-04-01T08:31:04;4.28;;;1.42;;
7747;SDS011;3918;42.564;23.164;2023-04-01T08:33:35;5.25;;;1.73;;
7747;SDS011;3918;42.564;23.164;2023-04-01T08:36:05;5.78;;;1.63;;
7747;SDS011;3918;42.564;23.164;2023-04-01T08:38:38;5.05;;;1.60;;
7747;SDS011;3918;42.564;23.164;2023-04-01T08:41:19;9.55;;;2.00;;
7747;SDS011;3918;42.564;23.164;2023-04-01T08:47:20;9.32;;;1.90;;
7747;SDS011;3918;42.564;23.164;2023-04-01T08:50:05;14.95;;;2.35;;
7747;SDS011;3918;42.564;23.164;2023-04-01T08:52:49;6.57;;;1.77;;
7747;SDS011;3918;42.564;23.164;2023-04-01T08:55:31;4.47;;;1.73;;
7747;SDS011;3918;42.564;23.164;2023-04-01T09:01:13;6.93;;;1.65;;
7747;SDS011;3918;42.564;23.164;2023-04-01T09:03:59;5.80;;;1.80;;
7747;SDS011;3918;42.564;23.164;2023-04-01T09:06:49;6.85;;;1.90;;
7747;SDS011;3918;42.564;23.164;2023-04-01T09:09:48;3.60;;;1.45;;
7747;SDS011;3918;42.564;23.164;2023-04-01T09:15:36;5.18;;;2.08;;
7747;SDS011;3918;42.564;23.164;2023-04-01T09:18:17;3.70;;;1.77;;
7747;SDS011;3918;42.564;23.164;2023-04-01T09:26:57;6.35;;;1.77;;
7747;SDS011;3918;42.564;23.164;2023-04-01T09:29:38;6.03;;;1.58;;
7747;SDS011;3918;42.564;23.164;2023-04-01T09:32:54;11.18;;;2.30;;
7747;SDS011;3918;42.564;23.164;2023-04-01T09:35:42;11.00;;;1.70;;
7747;SDS011;3918;42.564;23.164;2023-04-01T09:38:22;19.75;;;2.55;;
7747;SDS011;3918;42.564;23.164;2023-04-01T09:40:55;15.05;;;2.60;;
7747;SDS011;3918;42.564;23.164;2023-04-01T09:43:25;9.68;;;2.30;;
7747;SDS011;3918;42.564;23.164;2023-04-01T09:45:58;5.45;;;1.75;;
7747;SDS011;3918;42.564;23.164;2023-04-01T09:48:39;11.73;;;2.72;;
7747;SDS011;3918;42.564;23.164;2023-04-01T09:51:22;7.13;;;2.10;;
7747;SDS011;3918;42.564;23.164;2023-04-01T09:54:01;6.47;;;2.25;;
7747;SDS011;3918;42.564;23.164;2023-04-01T09:59:58;4.18;;;1.85;;
7747;SDS011;3918;42.564;23.164;2023-04-01T10:06:08;12.70;;;2.05;;
7747;SDS011;3918;42.564;23.164;2023-04-01T10:18:24;9.18;;;1.80;;
7747;SDS011;3918;42.564;23.164;2023-04-01T10:21:25;9.88;;;1.77;;
7747;SDS011;3918;42.564;23.164;2023-04-01T10:24:25;5.45;;;2.08;;
7747;SDS011;3918;42.564;23.164;2023-04-01T10:27:15;12.40;;;2.25;;
7747;SDS011;3918;42.564;23.164;2023-04-01T10:29:59;8.10;;;1.80;;
7747;SDS011;3918;42.564;23.164;2023-04-01T10:33:06;12.80;;;1.90;;
7747;SDS011;3918;42.564;23.164;2023-04-01T10:36:07;21.60;;;2.25;;
7747;SDS011;3918;42.564;23.164;2023-04-01T10:48:30;5.75;;;2.00;;
7747;SDS011;3918;42.564;23.164;2023-04-01T10:51:20;6.57;;;1.70;;
7747;SDS011;3918;42.564;23.164;2023-04-01T10:57:12;3.65;;;1.70;;
7747;SDS011;3918;42.564;23.164;2023-04-01T11:06:09;7.45;;;1.40;;
7747;SDS011;3918;42.564;23.164;2023-04-01T11:12:33;10.63;;;1.60;;
7747;SDS011;3918;42.564;23.164;2023-04-01T11:15:37;18.58;;;2.75;;
7747;SDS011;3918;42.564;23.164;2023-04-01T11:27:25;5.57;;;1.50;;
7747;SDS011;3918;42.564;23.164;2023-04-01T11:30:20;5.88;;;1.63;;
7747;SDS011;3918;42.564;23.164;2023-04-01T11:32:56;9.32;;;1.70;;
7747;SDS011;3918;42.564;23.164;2023-04-01T11:35:52;8.15;;;2.22;;
7747;SDS011;3918;42.564;23.164;2023-04-01T11:38:42;4.85;;;1.42;;
7747;SDS011;3918;42.564;23.164;2023-04-01T11:41:24;9.45;;;2.15;;
7747;SDS011;3918;42.564;23.164;2023-04-01T11:44:03;7.90;;;2.40;;
7747;SDS011;3918;42.564;23.164;2023-04-01T11:46:42;6.13;;;2.53;;
7747;SDS011;3918;42.564;23.164;2023-04-01T11:49:36;9.20;;;2.92;;
7747;SDS011;3918;42.564;23.164;2023-04-01T11:55:30;7.07;;;2.97;;
7747;SDS011;3918;42.564;23.164;2023-04-01T11:58:19;5.90;;;2.80;;
7747;SDS011;3918;42.564;23.164;2023-04-01T12:00:59;4.38;;;2.95;;
7747;SDS011;3918;42.564;23.164;2023-04-01T12:03:46;4.95;;;3.70;;
7747;SDS011;3918;42.564;23.164;2023-04-01T12:06:30;6.00;;;3.10;;
7747;SDS011;3918;42.564;23.164;2023-04-01T12:09:04;14.13;;;3.70;;
7747;SDS011;3918;42.564;23.164;2023-04-01T12:11:44;11.73;;;4.63;;
7747;SDS011;3918;42.564;23.164;2023-04-01T12:14:18;6.22;;;3.28;;
7747;SDS011;3918;42.564;23.164;2023-04-01T12:16:59;7.25;;;3.17;;
7747;SDS011;3918;42.564;23.164;2023-04-01T12:19:38;4.63;;;3.25;;
7747;SDS011;3918;42.564;23.164;2023-04-01T12:22:21;5.30;;;3.40;;
7747;SDS011;3918;42.564;23.164;2023-04-01T12:24:58;10.50;;;5.30;;
7747;SDS011;3918;42.564;23.164;2023-04-01T12:27:42;8.18;;;4.68;;
7747;SDS011;3918;42.564;23.164;2023-04-01T12:30:26;4.45;;;3.42;;
7747;SDS011;3918;42.564;23.164;2023-04-01T12:36:13;3.50;;;3.08;;
7747;SDS011;3918;42.564;23.164;2023-04-01T12:39:06;7.57;;;3.65;;
7747;SDS011;3918;42.564;23.164;2023-04-01T12:41:46;4.03;;;3.45;;
7747;SDS011;3918;42.564;23.164;2023-04-01T12:44:31;7.07;;;3.25;;
7747;SDS011;3918;42.564;23.164;2023-04-01T12:47:16;6.57;;;3.28;;
7747;SDS011;3918;42.564;23.164;2023-04-01T12:50:16;4.50;;;3.10;;
7747;SDS011;3918;42.564;23.164;2023-04-01T12:53:02;3.38;;;3.03;;
7747;SDS011;3918;42.564;23.164;2023-04-01T12:55:40;3.80;;;2.42;;
7747;SDS011;3918;42.564;23.164;2023-04-01T12:58:22;2.60;;;2.40;;
7747;SDS011;3918;42.564;23.164;2023-04-01T13:01:13;2.22;;;2.08;;
7747;SDS011;3918;42.564;23.164;2023-04-01T13:04:00;3.88;;;2.60;;
7747;SDS011;3918;42.564;23.164;2023-04-01T13:06:44;3.13;;;2.47;;
7747;SDS011;3918;42.564;23.164;2023-04-01T13:09:27;2.58;;;2.15;;
7747;SDS011;3918;42.564;23.164;2023-04-01T13:12:09;2.17;;;1.83;;
7747;SDS011;3918;42.564;23.164;2023-04-01T13:15:05;2.13;;;2.03;;
7747;SDS011;3918;42.564;23.164;2023-04-01T13:17:43;2.28;;;1.83;;
7747;SDS011;3918;42.564;23.164;2023-04-01T13:20:19;3.88;;;2.10;;
7747;SDS011;3918;42.564;23.164;2023-04-01T13:22:57;2.97;;;1.27;;
7747;SDS011;3918;42.564;23.164;2023-04-01T13:25:35;1.55;;;1.45;;
7747;SDS011;3918;42.564;23.164;2023-04-01T13:28:06;2.05;;;1.65;;
7747;SDS011;3918;42.564;23.164;2023-04-01T13:30:42;1.40;;;1.30;;
7747;SDS011;3918;42.564;23.164;2023-04-01T13:33:17;1.60;;;1.33;;
7747;SDS011;3918;42.564;23.164;2023-04-01T13:35:56;5.47;;;1.90;;
7747;SDS011;3918;42.564;23.164;2023-04-01T13:38:42;1.20;;;1.05;;
7747;SDS011;3918;42.564;23.164;2023-04-01T13:41:22;1.63;;;1.30;;
7747;SDS011;3918;42.564;23.164;2023-04-01T13:43:58;0.88;;;0.88;;
7747;SDS011;3918;42.564;23.164;2023-04-01T13:46:39;2.08;;;1.00;;
7747;SDS011;3918;42.564;23.164;2023-04-01T13:49:28;1.75;;;1.17;;
7747;SDS011;3918;42.564;23.164;2023-04-01T13:52:30;2.97;;;1.02;;
7747;SDS011;3918;42.564;23.164;2023-04-01T13:55:15;0.98;;;0.98;;
7747;SDS011;3918;42.564;23.164;2023-04-01T14:00:58;1.15;;;0.85;;
7747;SDS011;3918;42.564;23.164;2023-04-01T14:03:32;0.88;;;0.80;;
7747;SDS011;3918;42.564;23.164;2023-04-01T14:06:33;1.00;;;1.00;;
7747;SDS011;3918;42.564;23.164;2023-04-01T14:12:01;0.75;;;0.60;;
7747;SDS011;3918;42.564;23.164;2023-04-01T14:14:36;0.90;;;0.90;;
7747;SDS011;3918;42.564;23.164;2023-04-01T14:17:17;1.75;;;0.88;;
7747;SDS011;3918;42.564;23.164;2023-04-01T14:19:59;1.20;;;0.88;;
7747;SDS011;3918;42.564;23.164;2023-04-01T14:22:44;1.08;;;0.90;;
7747;SDS011;3918;42.564;23.164;2023-04-01T14:25:29;1.55;;;0.90;;
7747;SDS011;3918;42.564;23.164;2023-04-01T14:28:09;0.80;;;0.75;;
7747;SDS011;3918;42.564;23.164;2023-04-01T14:30:48;0.90;;;0.90;;
7747;SDS011;3918;42.564;23.164;2023-04-01T14:33:26;0.80;;;0.80;;
7747;SDS011;3918;42.564;23.164;2023-04-01T14:36:20;1.08;;;1.00;;
7747;SDS011;3918;42.564;23.164;2023-04-01T14:39:08;1.20;;;1.20;;
7747;SDS011;3918;42.564;23.164;2023-04-01T14:41:47;2.17;;;1.10;;
7747;SDS011;3918;42.564;23.164;2023-04-01T14:44:18;1.42;;;0.90;;
7747;SDS011;3918;42.564;23.164;2023-04-01T14:50:16;3.90;;;1.25;;
7747;SDS011;3918;42.564;23.164;2023-04-01T14:52:46;1.20;;;1.10;;
7747;SDS011;3918;42.564;23.164;2023-04-01T14:55:27;1.75;;;1.08;;
7747;SDS011;3918;42.564;23.164;2023-04-01T14:57:59;1.30;;;1.20;;
7747;SDS011;3918;42.564;23.164;2023-04-01T15:00:41;1.60;;;1.27;;
7747;SDS011;3918;42.564;23.164;2023-04-01T15:03:22;3.78;;;1.00;;
7747;SDS011;3918;42.564;23.164;2023-04-01T15:05:56;1.30;;;1.20;;
7747;SDS011;3918;42.564;23.164;2023-04-01T15:08:33;2.90;;;1.35;;
7747;SDS011;3918;42.564;23.164;2023-04-01T15:11:14;1.70;;;1.48;;
7747;SDS011;3918;42.564;23.164;2023-04-01T15:14:01;1.52;;;1.42;;
7747;SDS011;3918;42.564;23.164;2023-04-01T15:16:46;3.88;;;1.35;;
7747;SDS011;3918;42.564;23.164;2023-04-01T15:19:23;2.22;;;1.40;;
7747;SDS011;3918;42.564;23.164;2023-04-01T15:22:21;4.05;;;1.60;;
7747;SDS011;3918;42.564;23.164;2023-04-01T15:25:04;3.40;;;1.40;;
7747;SDS011;3918;42.564;23.164;2023-04-01T15:27:45;2.75;;;1.50;;
7747;SDS011;3918;42.564;23.164;2023-04-01T15:30:21;3.15;;;1.50;;
7747;SDS011;3918;42.564;23.164;2023-04-01T15:33:17;1.75;;;1.58;;
7747;SDS011;3918;42.564;23.164;2023-04-01T15:35:58;8.38;;;1.92;;
7747;SDS011;3918;42.564;23.164;2023-04-01T15:38:36;4.13;;;1.75;;
7747;SDS011;3918;42.564;23.164;2023-04-01T15:41:14;5.80;;;2.22;;
7747;SDS011;3918;42.564;23.164;2023-04-01T15:43:44;1.77;;;1.67;;
7747;SDS011;3918;42.564;23.164;2023-04-01T15:46:20;4.32;;;1.65;;
7747;SDS011;3918;42.564;23.164;2023-04-01T15:49:09;1.75;;;1.40;;
7747;SDS011;3918;42.564;23.164;2023-04-01T15:54:48;6.88;;;1.88;;
7747;SDS011;3918;42.564;23.164;2023-04-01T15:57:33;2.33;;;1.27;;
7747;SDS011;3918;42.564;23.164;2023-04-01T16:00:21;3.75;;;1.10;;
7747;SDS011;3918;42.564;23.164;2023-04-01T16:03:08;1.77;;;1.02;;
7747;SDS011;3918;42.564;23.164;2023-04-01T16:05:47;1.00;;;0.75;;
7747;SDS011;3918;42.564;23.164;2023-04-01T16:11:28;3.20;;;3.00;;
7747;SDS011;3918;42.564;23.164;2023-04-01T16:14:08;1.88;;;1.70;;
7747;SDS011;3918;42.564;23.164;2023-04-01T16:16:45;1.95;;;1.85;;
7747;SDS011;3918;42.564;23.164;2023-04-01T16:19:26;1.92;;;1.92;;
7747;SDS011;3918;42.564;23.164;2023-04-01T16:22:05;7.07;;;2.60;;
7747;SDS011;3918;42.564;23.164;2023-04-01T16:24:38;2.50;;;2.40;;
7747;SDS011;3918;42.564;23.164;2023-04-01T16:27:11;2.53;;;2.40;;
7747;SDS011;3918;42.564;23.164;2023-04-01T16:29:45;2.55;;;2.45;;
7747;SDS011;3918;42.564;23.164;2023-04-01T16:32:21;2.10;;;2.10;;
7747;SDS011;3918;42.564;23.164;2023-04-01T16:34:58;2.80;;;2.70;;
7747;SDS011;3918;42.564;23.164;2023-04-01T16:37:39;3.00;;;2.90;;
7747;SDS011;3918;42.564;23.164;2023-04-01T16:40:16;3.30;;;3.13;;
7747;SDS011;3918;42.564;23.164;2023-04-01T16:42:52;3.33;;;3.05;;
7747;SDS011;3918;42.564;23.164;2023-04-01T16:45:29;3.33;;;3.03;;
7747;SDS011;3918;42.564;23.164;2023-04-01T16:48:05;3.22;;;2.92;;
7747;SDS011;3918;42.564;23.164;2023-04-01T16:50:39;3.25;;;2.92;;
7747;SDS011;3918;42.564;23.164;2023-04-01T16:53:17;3.28;;;3.08;;
7747;SDS011;3918;42.564;23.164;2023-04-01T16:55:49;4.10;;;3.90;;
7747;SDS011;3918;42.564;23.164;2023-04-01T16:58:18;3.85;;;3.55;;
7747;SDS011;3918;42.564;23.164;2023-04-01T17:00:52;3.50;;;3.30;;
7747;SDS011;3918;42.564;23.164;2023-04-01T17:03:25;3.38;;;3.17;;
7747;SDS011;3918;42.564;23.164;2023-04-01T17:05:59;3.30;;;3.05;;
7747;SDS011;3918;42.564;23.164;2023-04-01T17:08:40;2.83;;;2.72;;
7747;SDS011;3918;42.564;23.164;2023-04-01T17:11:21;3.70;;;2.83;;
7747;SDS011;3918;42.564;23.164;2023-04-01T17:13:56;2.30;;;2.20;;
7747;SDS011;3918;42.564;23.164;2023-04-01T17:19:40;3.20;;;3.00;;
7747;SDS011;3918;42.564;23.164;2023-04-01T17:22:31;3.00;;;2.80;;
7747;SDS011;3918;42.564;23.164;2023-04-01T17:25:14;3.20;;;3.03;;
7747;SDS011;3918;42.564;23.164;2023-04-01T17:27:51;3.20;;;2.53;;
7747;SDS011;3918;42.564;23.164;2023-04-01T17:30:27;2.30;;;2.10;;
7747;SDS011;3918;42.564;23.164;2023-04-01T17:33:07;3.47;;;3.20;;